createdAt,value
2017-08-01T00:00:01.222Z,933.41
2017-08-01T00:00:14.724Z,933.43
2017-08-01T00:00:28.254Z,933.4
2017-08-01T00:00:41.229Z,933.36
2017-08-01T00:00:54.668Z,933.42
2017-08-01T00:01:08.134Z,933.4
2017-08-01T00:01:21.515Z,933.39
2017-08-01T00:01:34.431Z,933.38
2017-08-01T00:01:47.890Z,933.38
2017-08-01T00:02:01.424Z,933.42
2017-08-01T00:02:13.814Z,933.38
2017-08-01T00:02:27.285Z,933.38
2017-08-01T00:02:40.218Z,933.36
2017-08-01T00:02:53.677Z,933.4
2017-08-01T00:03:06.578Z,933.38
2017-08-01T00:03:19.989Z,933.35
2017-08-01T00:03:32.363Z,933.36
2017-08-01T00:03:45.259Z,933.38
2017-08-01T00:03:58.158Z,933.4
2017-08-01T00:04:11.660Z,933.37
2017-08-01T00:04:25.104Z,933.35
2017-08-01T00:04:38.589Z,933.39
2017-08-01T00:04:52.046Z,933.35
2017-08-01T00:05:05.448Z,933.37
2017-08-01T00:05:18.895Z,933.35
2017-08-01T00:05:31.788Z,933.37
2017-08-01T00:05:45.271Z,933.39
2017-08-01T00:05:58.167Z,933.39
2017-08-01T00:06:11.659Z,933.38
2017-08-01T00:06:25.100Z,933.34
2017-08-01T00:06:38.563Z,933.38
2017-08-01T00:06:51.509Z,933.36
2017-08-01T00:07:03.926Z,933.38
2017-08-01T00:07:17.390Z,933.41
2017-08-01T00:07:30.814Z,933.37
2017-08-01T00:07:44.249Z,933.42
2017-08-01T00:07:57.600Z,933.39
2017-08-01T00:08:10.014Z,933.36
2017-08-01T00:08:23.007Z,933.36
2017-08-01T00:08:35.389Z,933.35
2017-08-01T00:08:48.331Z,933.4
2017-08-01T00:09:01.296Z,933.38
2017-08-01T00:09:14.750Z,933.39
2017-08-01T00:09:28.213Z,933.38
2017-08-01T00:09:41.759Z,933.36
2017-08-01T00:09:55.156Z,933.37
2017-08-01T00:10:08.492Z,933.36
2017-08-01T00:10:20.894Z,933.4
2017-08-01T00:10:34.432Z,933.38
2017-08-01T00:10:47.885Z,933.39
2017-08-01T00:11:01.303Z,933.39
2017-08-01T00:11:14.801Z,933.39
2017-08-01T00:11:28.255Z,933.37
2017-08-01T00:11:41.796Z,933.41
2017-08-01T00:11:55.204Z,933.41
2017-08-01T00:12:08.130Z,933.39
2017-08-01T00:12:21.667Z,933.4
2017-08-01T00:12:35.138Z,933.42
2017-08-01T00:12:48.071Z,933.42
2017-08-01T00:13:01.489Z,933.38
2017-08-01T00:13:14.989Z,933.38
2017-08-01T00:13:27.890Z,933.41
2017-08-01T00:13:41.298Z,933.43
2017-08-01T00:13:54.716Z,933.39
2017-08-01T00:14:07.605Z,933.41
2017-08-01T00:14:20.985Z,933.42
2017-08-01T00:14:34.436Z,933.4
2017-08-01T00:14:47.880Z,933.41
2017-08-01T00:15:01.273Z,933.42
2017-08-01T00:15:14.197Z,933.43
2017-08-01T00:15:27.672Z,933.39
2017-08-01T00:15:41.169Z,933.44
2017-08-01T00:15:54.607Z,933.43
2017-08-01T00:16:08.088Z,933.42
2017-08-01T00:16:21.029Z,933.42
2017-08-01T00:16:34.042Z,933.4
2017-08-01T00:16:47.499Z,933.4
2017-08-01T00:17:02.034Z,933.44
2017-08-01T00:17:15.493Z,933.4
2017-08-01T00:17:28.972Z,933.43
2017-08-01T00:17:42.432Z,933.43
2017-08-01T00:17:55.867Z,933.38
2017-08-01T00:18:09.312Z,933.41
2017-08-01T00:18:22.786Z,933.38
2017-08-01T00:18:36.237Z,933.39
2017-08-01T00:18:49.664Z,933.39
2017-08-01T00:19:02.655Z,933.4
2017-08-01T00:19:16.132Z,933.38
2017-08-01T00:19:29.622Z,933.37
2017-08-01T00:19:43.065Z,933.37
2017-08-01T00:19:55.950Z,933.37
2017-08-01T00:20:08.833Z,933.38
2017-08-01T00:20:22.339Z,933.37
2017-08-01T00:20:35.791Z,933.35
2017-08-01T00:20:49.197Z,933.36
2017-08-01T00:21:01.565Z,933.37
2017-08-01T00:21:15.028Z,933.39
2017-08-01T00:21:28.507Z,933.37
2017-08-01T00:21:41.954Z,933.36
2017-08-01T00:21:54.327Z,933.37
2017-08-01T00:22:07.289Z,933.32
2017-08-01T00:22:20.193Z,933.36
2017-08-01T00:22:33.587Z,933.36
2017-08-01T00:22:47.043Z,933.34
2017-08-01T00:23:00.525Z,933.35
2017-08-01T00:23:13.944Z,933.36
2017-08-01T00:23:26.336Z,933.38
2017-08-01T00:23:39.755Z,933.35
2017-08-01T00:23:52.700Z,933.36
2017-08-01T00:24:05.610Z,933.37
2017-08-01T00:24:18.592Z,933.36
2017-08-01T00:24:31.484Z,933.38
2017-08-01T00:24:44.365Z,933.36
2017-08-01T00:24:57.861Z,933.33
2017-08-01T00:25:10.227Z,933.36
2017-08-01T00:25:23.202Z,933.35
2017-08-01T00:25:35.549Z,933.36
2017-08-01T00:25:48.977Z,933.35
2017-08-01T00:26:02.454Z,933.34
2017-08-01T00:26:15.893Z,933.34
2017-08-01T00:26:29.357Z,933.35
2017-08-01T00:26:42.790Z,933.33
2017-08-01T00:26:55.749Z,933.33
2017-08-01T00:27:08.845Z,933.33
2017-08-01T00:27:22.318Z,933.34
2017-08-01T00:27:35.283Z,933.36
2017-08-01T00:27:48.652Z,933.36
2017-08-01T00:28:02.108Z,933.33
2017-08-01T00:28:15.559Z,933.32
2017-08-01T00:28:28.496Z,933.31
2017-08-01T00:28:41.968Z,933.34
2017-08-01T00:28:55.484Z,933.33
2017-08-01T00:29:08.913Z,933.35
2017-08-01T00:29:22.350Z,933.35
2017-08-01T00:29:35.795Z,933.36
2017-08-01T00:29:49.264Z,933.35
2017-08-01T00:30:02.728Z,933.33
2017-08-01T00:30:16.225Z,933.32
2017-08-01T00:30:29.649Z,933.35
2017-08-01T00:30:42.620Z,933.34
2017-08-01T00:30:56.033Z,933.33
2017-08-01T00:31:09.473Z,933.28
2017-08-01T00:31:22.897Z,933.3
2017-08-01T00:31:35.756Z,933.32
2017-08-01T00:31:49.184Z,933.29
2017-08-01T00:32:02.860Z,933.29
2017-08-01T00:32:16.588Z,933.32
2017-08-01T00:32:29.487Z,933.21
2017-08-01T00:32:42.468Z,933.29
2017-08-01T00:32:55.909Z,933.28
2017-08-01T00:33:09.362Z,933.29
2017-08-01T00:33:22.824Z,933.3
2017-08-01T00:33:36.273Z,933.3
2017-08-01T00:33:49.787Z,933.28
2017-08-01T00:34:02.762Z,933.28
2017-08-01T00:34:16.235Z,933.32
2017-08-01T00:34:29.143Z,933.28
2017-08-01T00:34:42.114Z,933.31
2017-08-01T00:34:55.602Z,933.29
2017-08-01T00:35:09.020Z,933.27
2017-08-01T00:35:22.498Z,933.28
2017-08-01T00:35:35.461Z,933.26
2017-08-01T00:35:48.359Z,933.26
2017-08-01T00:36:01.784Z,933.31
2017-08-01T00:36:15.241Z,933.27
2017-08-01T00:36:28.687Z,933.28
2017-08-01T00:36:41.113Z,933.27
2017-08-01T00:36:54.613Z,933.28
2017-08-01T00:37:07.676Z,933.28
2017-08-01T00:37:21.135Z,933.27
2017-08-01T00:37:34.073Z,933.29
2017-08-01T00:37:47.508Z,933.24
2017-08-01T00:38:01.021Z,933.29
2017-08-01T00:38:14.422Z,933.27
2017-08-01T00:38:27.323Z,933.3
2017-08-01T00:38:40.766Z,933.28
2017-08-01T00:38:54.263Z,933.29
2017-08-01T00:39:07.672Z,933.28
2017-08-01T00:39:21.133Z,933.28
2017-08-01T00:39:34.579Z,933.26
2017-08-01T00:39:48.000Z,933.27
2017-08-01T00:40:01.453Z,933.3
2017-08-01T00:40:14.901Z,933.3
2017-08-01T00:40:27.884Z,933.28
2017-08-01T00:40:41.304Z,933.25
2017-08-01T00:40:54.700Z,933.3
2017-08-01T00:41:08.195Z,933.28
2017-08-01T00:41:21.170Z,933.3
2017-08-01T00:41:33.618Z,933.26
2017-08-01T00:41:47.029Z,933.26
2017-08-01T00:42:00.492Z,933.27
2017-08-01T00:42:14.199Z,933.26
2017-08-01T00:42:27.725Z,933.29
2017-08-01T00:42:41.182Z,933.27
2017-08-01T00:42:54.605Z,933.27
2017-08-01T00:43:08.018Z,933.29
2017-08-01T00:43:21.452Z,933.28
2017-08-01T00:43:34.951Z,933.25
2017-08-01T00:43:48.446Z,933.26
2017-08-01T00:44:01.370Z,933.26
2017-08-01T00:44:14.322Z,933.26
2017-08-01T00:44:27.766Z,933.26
2017-08-01T00:44:41.192Z,933.29
2017-08-01T00:44:54.650Z,933.26
2017-08-01T00:45:08.115Z,933.24
2017-08-01T00:45:19.996Z,933.26
2017-08-01T00:45:33.441Z,933.27
2017-08-01T00:45:46.313Z,933.25
2017-08-01T00:45:58.761Z,933.26
2017-08-01T00:46:12.222Z,933.27
2017-08-01T00:46:25.111Z,933.27
2017-08-01T00:46:38.002Z,933.27
2017-08-01T00:46:51.522Z,933.28
2017-08-01T00:47:04.433Z,933.26
2017-08-01T00:47:18.501Z,933.22
2017-08-01T00:47:30.859Z,933.25
2017-08-01T00:47:44.332Z,933.25
2017-08-01T00:47:57.796Z,933.26
2017-08-01T00:48:10.709Z,933.27
2017-08-01T00:48:23.580Z,933.25
2017-08-01T00:48:37.066Z,933.24
2017-08-01T00:48:50.572Z,933.24
2017-08-01T00:49:03.493Z,933.22
2017-08-01T00:49:16.926Z,933.2
2017-08-01T00:49:30.394Z,933.25
2017-08-01T00:49:43.836Z,933.23
2017-08-01T00:49:57.243Z,933.24
2017-08-01T00:50:10.754Z,933.23
2017-08-01T00:50:24.222Z,933.21
2017-08-01T00:50:37.678Z,933.21
2017-08-01T00:50:50.560Z,933.23
2017-08-01T00:51:03.998Z,933.21
2017-08-01T00:51:17.397Z,933.25
2017-08-01T00:51:30.808Z,933.2
2017-08-01T00:51:43.770Z,933.21
2017-08-01T00:51:57.294Z,933.22
2017-08-01T00:52:10.722Z,933.21
2017-08-01T00:52:23.765Z,933.18
2017-08-01T00:52:36.153Z,933.2
2017-08-01T00:52:49.633Z,933.21
2017-08-01T00:53:02.014Z,933.16
2017-08-01T00:53:15.436Z,933.21
2017-08-01T00:53:29.102Z,933.19
2017-08-01T00:53:42.475Z,933.2
2017-08-01T00:53:55.961Z,933.21
2017-08-01T00:54:09.414Z,933.21
2017-08-01T00:54:22.293Z,933.19
2017-08-01T00:54:35.721Z,933.21
2017-08-01T00:54:48.614Z,933.2
2017-08-01T00:55:02.046Z,933.18
2017-08-01T00:55:14.957Z,933.16
2017-08-01T00:55:27.845Z,933.17
2017-08-01T00:55:41.261Z,933.15
2017-08-01T00:55:54.717Z,933.17
2017-08-01T00:56:07.620Z,933.17
2017-08-01T00:56:21.101Z,933.2
2017-08-01T00:56:34.625Z,933.15
2017-08-01T00:56:48.057Z,933.19
2017-08-01T00:57:01.495Z,933.23
2017-08-01T00:57:14.435Z,933.19
2017-08-01T00:57:28.055Z,933.17
2017-08-01T00:57:41.452Z,933.16
2017-08-01T00:57:54.346Z,933.19
2017-08-01T00:58:07.249Z,933.18
2017-08-01T00:58:20.753Z,933.18
2017-08-01T00:58:33.655Z,933.18
2017-08-01T00:58:47.137Z,933.18
2017-08-01T00:58:59.524Z,933.19
2017-08-01T00:59:12.467Z,933.17
2017-08-01T00:59:25.972Z,933.18
2017-08-01T00:59:38.378Z,933.16
2017-08-01T00:59:51.851Z,933.2
2017-08-01T01:00:04.848Z,933.21
2017-08-01T01:00:18.384Z,933.17
2017-08-01T01:00:31.778Z,933.21
2017-08-01T01:00:45.221Z,933.17
2017-08-01T01:00:58.655Z,933.17
2017-08-01T01:01:12.105Z,933.17
2017-08-01T01:01:25.556Z,933.17
2017-08-01T01:01:39.020Z,933.21
2017-08-01T01:01:52.508Z,933.19
2017-08-01T01:02:05.895Z,933.16
2017-08-01T01:02:19.262Z,933.19
2017-08-01T01:02:32.947Z,933.17
2017-08-01T01:02:45.271Z,933.2
2017-08-01T01:02:58.685Z,933.15
2017-08-01T01:03:11.595Z,933.2
2017-08-01T01:03:24.525Z,933.2
2017-08-01T01:03:37.976Z,933.2
2017-08-01T01:03:51.418Z,933.22
2017-08-01T01:04:04.341Z,933.22
2017-08-01T01:04:17.812Z,933.2
2017-08-01T01:04:31.251Z,933.2
2017-08-01T01:04:44.768Z,933.2
2017-08-01T01:04:57.170Z,933.22
2017-08-01T01:05:10.079Z,933.23
2017-08-01T01:05:23.565Z,933.2
2017-08-01T01:05:36.530Z,933.23
2017-08-01T01:05:50.037Z,933.23
2017-08-01T01:06:02.372Z,933.25
2017-08-01T01:06:15.825Z,933.23
2017-08-01T01:06:29.196Z,933.26
2017-08-01T01:06:42.640Z,933.24
2017-08-01T01:06:56.098Z,933.24
2017-08-01T01:07:09.534Z,933.27
2017-08-01T01:07:22.955Z,933.24
2017-08-01T01:07:36.376Z,933.22
2017-08-01T01:07:49.855Z,933.23
2017-08-01T01:08:03.361Z,933.24
2017-08-01T01:08:16.802Z,933.25
2017-08-01T01:08:30.245Z,933.25
2017-08-01T01:08:43.771Z,933.25
2017-08-01T01:08:57.250Z,933.25
2017-08-01T01:09:10.777Z,933.24
2017-08-01T01:09:23.648Z,933.23
2017-08-01T01:09:37.087Z,933.24
2017-08-01T01:09:50.475Z,933.2
2017-08-01T01:10:03.390Z,933.23
2017-08-01T01:10:16.829Z,933.24
2017-08-01T01:10:30.225Z,933.2
2017-08-01T01:10:43.642Z,933.28
2017-08-01T01:10:57.036Z,933.23
2017-08-01T01:11:09.928Z,933.24
2017-08-01T01:11:23.376Z,933.21
2017-08-01T01:11:36.310Z,933.25
2017-08-01T01:11:49.836Z,933.23
2017-08-01T01:12:03.321Z,933.2
2017-08-01T01:12:16.899Z,933.26
2017-08-01T01:12:30.381Z,933.19
2017-08-01T01:12:43.831Z,933.22
2017-08-01T01:12:57.304Z,933.23
2017-08-01T01:13:10.270Z,933.24
2017-08-01T01:13:23.202Z,933.2
2017-08-01T01:13:36.634Z,933.19
2017-08-01T01:13:50.113Z,933.26
2017-08-01T01:14:03.631Z,933.19
2017-08-01T01:14:17.097Z,933.22
2017-08-01T01:14:30.567Z,933.19
2017-08-01T01:14:44.022Z,933.19
2017-08-01T01:14:56.959Z,933.21
2017-08-01T01:15:09.925Z,933.23
2017-08-01T01:15:23.379Z,933.19
2017-08-01T01:15:36.875Z,933.18
2017-08-01T01:15:49.267Z,933.19
2017-08-01T01:16:02.751Z,933.17
2017-08-01T01:16:16.240Z,933.18
2017-08-01T01:16:29.665Z,933.19
2017-08-01T01:16:43.106Z,933.17
2017-08-01T01:16:56.556Z,933.16
2017-08-01T01:17:09.980Z,933.19
2017-08-01T01:17:23.431Z,933.21
2017-08-01T01:17:36.529Z,933.18
2017-08-01T01:17:49.413Z,933.17
2017-08-01T01:18:02.325Z,933.21
2017-08-01T01:18:15.759Z,933.17
2017-08-01T01:18:29.103Z,933.19
2017-08-01T01:18:42.503Z,933.16
2017-08-01T01:18:55.910Z,933.15
2017-08-01T01:19:09.441Z,933.14
2017-08-01T01:19:22.897Z,933.15
2017-08-01T01:19:36.306Z,933.14
2017-08-01T01:19:49.763Z,933.15
2017-08-01T01:20:03.130Z,933.13
2017-08-01T01:20:16.579Z,933.14
2017-08-01T01:20:30.039Z,933.14
2017-08-01T01:20:43.492Z,933.13
2017-08-01T01:20:56.915Z,933.14
2017-08-01T01:21:09.346Z,933.14
2017-08-01T01:21:22.807Z,933.18
2017-08-01T01:21:36.266Z,933.16
2017-08-01T01:21:49.144Z,933.13
2017-08-01T01:22:02.512Z,933.13
2017-08-01T01:22:15.976Z,933.14
2017-08-01T01:22:29.374Z,933.14
2017-08-01T01:22:42.789Z,933.12
2017-08-01T01:22:56.264Z,933.11
2017-08-01T01:23:09.756Z,933.18
2017-08-01T01:23:23.266Z,933.14
2017-08-01T01:23:36.666Z,933.16
2017-08-01T01:23:50.184Z,933.13
2017-08-01T01:24:03.626Z,933.13
2017-08-01T01:24:17.099Z,933.19
2017-08-01T01:24:30.517Z,933.15
2017-08-01T01:24:43.425Z,933.13
2017-08-01T01:24:56.325Z,933.16
2017-08-01T01:25:09.758Z,933.15
2017-08-01T01:25:23.232Z,933.15
2017-08-01T01:25:36.649Z,933.18
2017-08-01T01:25:50.124Z,933.13
2017-08-01T01:26:03.606Z,933.14
2017-08-01T01:26:17.053Z,933.15
2017-08-01T01:26:30.446Z,933.14
2017-08-01T01:26:43.935Z,933.12
2017-08-01T01:26:57.311Z,933.14
2017-08-01T01:27:10.754Z,933.16
2017-08-01T01:27:24.155Z,933.15
2017-08-01T01:27:37.277Z,933.15
2017-08-01T01:27:50.180Z,933.18
2017-08-01T01:28:03.673Z,933.15
2017-08-01T01:28:17.105Z,933.14
2017-08-01T01:28:30.568Z,933.18
2017-08-01T01:28:44.002Z,933.15
2017-08-01T01:28:57.472Z,933.16
2017-08-01T01:29:10.901Z,933.18
2017-08-01T01:29:24.360Z,933.17
2017-08-01T01:29:37.224Z,933.18
2017-08-01T01:29:50.664Z,933.18
2017-08-01T01:30:03.576Z,933.18
2017-08-01T01:30:17.011Z,933.19
2017-08-01T01:30:30.448Z,933.17
2017-08-01T01:30:43.847Z,933.18
2017-08-01T01:30:57.275Z,933.13
2017-08-01T01:31:10.689Z,933.18
2017-08-01T01:31:24.104Z,933.16
2017-08-01T01:31:36.982Z,933.18
2017-08-01T01:31:50.411Z,933.2
2017-08-01T01:32:03.284Z,933.17
2017-08-01T01:32:16.704Z,933.15
2017-08-01T01:32:30.188Z,933.16
2017-08-01T01:32:43.671Z,933.17
2017-08-01T01:32:57.091Z,933.17
2017-08-01T01:33:10.585Z,933.18
2017-08-01T01:33:23.026Z,933.16
2017-08-01T01:33:36.465Z,933.16
2017-08-01T01:33:49.930Z,933.14
2017-08-01T01:34:03.443Z,933.2
2017-08-01T01:34:16.869Z,933.17
2017-08-01T01:34:30.309Z,933.16
2017-08-01T01:34:43.754Z,933.19
2017-08-01T01:34:57.149Z,933.14
2017-08-01T01:35:10.109Z,933.11
2017-08-01T01:35:22.985Z,933.13
2017-08-01T01:35:35.965Z,933.15
2017-08-01T01:35:48.293Z,933.15
2017-08-01T01:36:00.169Z,933.12
2017-08-01T01:36:13.628Z,933.14
2017-08-01T01:36:27.097Z,933.16
2017-08-01T01:36:40.566Z,933.18
2017-08-01T01:36:54.034Z,933.16
2017-08-01T01:37:06.894Z,933.12
2017-08-01T01:37:19.778Z,933.16
2017-08-01T01:37:33.182Z,933.16
2017-08-01T01:37:46.762Z,933.16
2017-08-01T01:38:00.148Z,933.18
2017-08-01T01:38:13.617Z,933.16
2017-08-01T01:38:27.123Z,933.15
2017-08-01T01:38:40.057Z,933.14
2017-08-01T01:38:53.518Z,933.16
2017-08-01T01:39:06.962Z,933.19
2017-08-01T01:39:19.345Z,933.15
2017-08-01T01:39:32.242Z,933.16
2017-08-01T01:39:45.754Z,933.21
2017-08-01T01:39:57.680Z,933.18
2017-08-01T01:40:10.543Z,933.18
2017-08-01T01:40:23.946Z,933.18
2017-08-01T01:40:37.422Z,933.17
2017-08-01T01:40:50.842Z,933.18
2017-08-01T01:41:04.323Z,933.17
2017-08-01T01:41:17.244Z,933.19
2017-08-01T01:41:30.615Z,933.18
2017-08-01T01:41:44.111Z,933.2
2017-08-01T01:41:57.490Z,933.19
2017-08-01T01:42:10.395Z,933.18
2017-08-01T01:42:23.808Z,933.16
2017-08-01T01:42:37.184Z,933.18
2017-08-01T01:42:50.718Z,933.19
2017-08-01T01:43:04.105Z,933.17
2017-08-01T01:43:17.561Z,933.18
2017-08-01T01:43:30.970Z,933.18
2017-08-01T01:43:44.384Z,933.19
2017-08-01T01:43:57.892Z,933.17
2017-08-01T01:44:10.836Z,933.19
2017-08-01T01:44:23.797Z,933.18
2017-08-01T01:44:36.237Z,933.18
2017-08-01T01:44:49.666Z,933.15
2017-08-01T01:45:03.158Z,933.15
2017-08-01T01:45:16.601Z,933.19
2017-08-01T01:45:29.597Z,933.2
2017-08-01T01:45:43.018Z,933.17
2017-08-01T01:45:55.939Z,933.17
2017-08-01T01:46:09.342Z,933.17
2017-08-01T01:46:22.760Z,933.17
2017-08-01T01:46:35.698Z,933.15
2017-08-01T01:46:48.649Z,933.14
2017-08-01T01:47:02.161Z,933.17
2017-08-01T01:47:15.690Z,933.16
2017-08-01T01:47:28.616Z,933.17
2017-08-01T01:47:42.764Z,933.17
2017-08-01T01:47:55.656Z,933.18
2017-08-01T01:48:08.080Z,933.15
2017-08-01T01:48:21.541Z,933.16
2017-08-01T01:48:35.084Z,933.15
2017-08-01T01:48:48.554Z,933.17
2017-08-01T01:49:02.024Z,933.17
2017-08-01T01:49:15.440Z,933.16
2017-08-01T01:49:28.863Z,933.18
2017-08-01T01:49:42.402Z,933.16
2017-08-01T01:49:55.919Z,933.19
2017-08-01T01:50:09.412Z,933.18
2017-08-01T01:50:22.863Z,933.17
2017-08-01T01:50:36.305Z,933.15
2017-08-01T01:50:49.753Z,933.17
2017-08-01T01:51:03.178Z,933.14
2017-08-01T01:51:16.058Z,933.16
2017-08-01T01:51:29.430Z,933.14
2017-08-01T01:51:41.783Z,933.16
2017-08-01T01:51:54.693Z,933.14
2017-08-01T01:52:07.617Z,933.1
2017-08-01T01:52:21.127Z,933.12
2017-08-01T01:52:34.026Z,933.12
2017-08-01T01:52:47.414Z,933.12
2017-08-01T01:53:00.894Z,933.1
2017-08-01T01:53:14.355Z,933.1
2017-08-01T01:53:27.221Z,933.11
2017-08-01T01:53:40.164Z,933.13
2017-08-01T01:53:53.663Z,933.11
2017-08-01T01:54:06.075Z,933.1
2017-08-01T01:54:19.497Z,933.1
2017-08-01T01:54:32.933Z,933.09
2017-08-01T01:54:46.434Z,933.11
2017-08-01T01:54:59.881Z,933.11
2017-08-01T01:55:13.347Z,933.1
2017-08-01T01:55:26.793Z,933.09
2017-08-01T01:55:40.296Z,933.07
2017-08-01T01:55:53.179Z,933.07
2017-08-01T01:56:06.629Z,933.08
2017-08-01T01:56:20.063Z,933.06
2017-08-01T01:56:33.484Z,933.09
2017-08-01T01:56:46.442Z,933.13
2017-08-01T01:56:59.375Z,933.08
2017-08-01T01:57:12.808Z,933.08
2017-08-01T01:57:26.229Z,933.07
2017-08-01T01:57:39.686Z,933.1
2017-08-01T01:57:53.309Z,933.07
2017-08-01T01:58:06.807Z,933.08
2017-08-01T01:58:19.738Z,933.1
2017-08-01T01:58:33.226Z,933.05
2017-08-01T01:58:46.655Z,933.08
2017-08-01T01:59:00.037Z,933.08
2017-08-01T01:59:13.436Z,933.1
2017-08-01T01:59:25.881Z,933.1
2017-08-01T01:59:39.281Z,933.1
2017-08-01T01:59:52.137Z,933.08
2017-08-01T02:00:05.634Z,933.07
2017-08-01T02:00:18.042Z,933.07
2017-08-01T02:00:31.456Z,933.05
2017-08-01T02:00:44.833Z,933.05
2017-08-01T02:00:57.755Z,933.04
2017-08-01T02:01:10.673Z,933.05
2017-08-01T02:01:24.134Z,933.06
2017-08-01T02:01:37.038Z,933.04
2017-08-01T02:01:50.507Z,933.07
2017-08-01T02:02:03.928Z,933.1
2017-08-01T02:02:16.837Z,933.05
2017-08-01T02:02:30.328Z,933.06
2017-08-01T02:02:43.331Z,933.07
2017-08-01T02:02:56.657Z,933.03
2017-08-01T02:03:10.121Z,933
2017-08-01T02:03:23.538Z,933.02
2017-08-01T02:03:36.384Z,933.04
2017-08-01T02:03:49.310Z,933.07
2017-08-01T02:04:02.796Z,933.03
2017-08-01T02:04:16.324Z,932.99
2017-08-01T02:04:29.782Z,933.04
2017-08-01T02:04:43.222Z,933.04
2017-08-01T02:04:56.168Z,933.04
2017-08-01T02:05:09.631Z,933.02
2017-08-01T02:05:23.068Z,933
2017-08-01T02:05:36.481Z,933.02
2017-08-01T02:05:49.998Z,933
2017-08-01T02:06:03.440Z,932.97
2017-08-01T02:06:16.360Z,932.99
2017-08-01T02:06:29.260Z,932.98
2017-08-01T02:06:42.692Z,933
2017-08-01T02:06:55.625Z,933
2017-08-01T02:07:09.081Z,933
2017-08-01T02:07:22.487Z,932.99
2017-08-01T02:07:35.404Z,933
2017-08-01T02:07:48.304Z,933
2017-08-01T02:08:01.248Z,932.97
2017-08-01T02:08:13.686Z,932.97
2017-08-01T02:08:26.650Z,932.99
2017-08-01T02:08:40.118Z,932.97
2017-08-01T02:08:53.019Z,933
2017-08-01T02:09:06.435Z,932.99
2017-08-01T02:09:19.344Z,933.02
2017-08-01T02:09:31.740Z,932.98
2017-08-01T02:09:45.146Z,932.99
2017-08-01T02:09:58.690Z,932.99
2017-08-01T02:10:11.665Z,932.97
2017-08-01T02:10:25.103Z,932.96
2017-08-01T02:10:38.670Z,932.95
2017-08-01T02:10:52.179Z,932.98
2017-08-01T02:11:05.652Z,932.96
2017-08-01T02:11:18.608Z,932.98
2017-08-01T02:11:31.523Z,932.97
2017-08-01T02:11:44.925Z,932.98
2017-08-01T02:11:57.815Z,932.96
2017-08-01T02:12:10.686Z,932.98
2017-08-01T02:12:24.106Z,933.01
2017-08-01T02:12:37.032Z,932.99
2017-08-01T02:12:50.000Z,932.94
2017-08-01T02:13:03.144Z,932.99
2017-08-01T02:13:16.573Z,932.99
2017-08-01T02:13:30.017Z,932.99
2017-08-01T02:13:42.935Z,933
2017-08-01T02:13:55.835Z,932.99
2017-08-01T02:14:08.745Z,932.99
2017-08-01T02:14:22.204Z,932.98
2017-08-01T02:14:35.106Z,933.03
2017-08-01T02:14:48.527Z,933
2017-08-01T02:15:01.437Z,933.01
2017-08-01T02:15:14.870Z,933.02
2017-08-01T02:15:28.328Z,932.99
2017-08-01T02:15:41.174Z,933
2017-08-01T02:15:54.545Z,933.02
2017-08-01T02:16:06.905Z,933
2017-08-01T02:16:20.315Z,933.02
2017-08-01T02:16:33.783Z,933.02
2017-08-01T02:16:46.677Z,933.01
2017-08-01T02:16:59.556Z,932.97
2017-08-01T02:17:12.972Z,933.01
2017-08-01T02:17:26.385Z,932.99
2017-08-01T02:17:39.805Z,933.03
2017-08-01T02:17:53.302Z,933.01
2017-08-01T02:18:07.033Z,933.02
2017-08-01T02:18:20.505Z,933.01
2017-08-01T02:18:33.408Z,933
2017-08-01T02:18:46.863Z,932.97
2017-08-01T02:18:59.765Z,932.97
2017-08-01T02:19:13.191Z,933
2017-08-01T02:19:26.637Z,932.99
2017-08-01T02:19:39.532Z,932.98
2017-08-01T02:19:52.506Z,933
2017-08-01T02:20:05.367Z,932.97
2017-08-01T02:20:18.796Z,933
2017-08-01T02:20:32.244Z,933.01
2017-08-01T02:20:45.683Z,933.05
2017-08-01T02:20:59.133Z,933.03
2017-08-01T02:21:12.617Z,933
2017-08-01T02:21:26.017Z,933.05
2017-08-01T02:21:39.437Z,933.01
2017-08-01T02:21:52.362Z,933.01
2017-08-01T02:22:05.343Z,933.05
2017-08-01T02:22:18.832Z,933.02
2017-08-01T02:22:32.260Z,933.03
2017-08-01T02:22:45.695Z,933.01
2017-08-01T02:22:58.663Z,933.04
2017-08-01T02:23:12.099Z,933.05
2017-08-01T02:23:25.497Z,933.05
2017-08-01T02:23:38.423Z,933.06
2017-08-01T02:23:51.858Z,933.05
2017-08-01T02:24:04.265Z,933.04
2017-08-01T02:24:17.236Z,933.05
2017-08-01T02:24:30.117Z,933.05
2017-08-01T02:24:43.550Z,933.04
2017-08-01T02:24:56.471Z,933.05
2017-08-01T02:25:09.964Z,933.03
2017-08-01T02:25:23.449Z,933.03
2017-08-01T02:25:36.886Z,933.07
2017-08-01T02:25:50.360Z,933.01
2017-08-01T02:26:03.857Z,933.05
2017-08-01T02:26:17.266Z,933.05
2017-08-01T02:26:30.699Z,933.06
2017-08-01T02:26:44.102Z,933.04
2017-08-01T02:26:57.530Z,933.03
2017-08-01T02:27:10.441Z,933.07
2017-08-01T02:27:23.942Z,933.06
2017-08-01T02:27:36.859Z,933.03
2017-08-01T02:27:50.234Z,933.04
2017-08-01T02:28:03.858Z,933.05
2017-08-01T02:28:17.352Z,933.07
2017-08-01T02:28:30.821Z,933.06
2017-08-01T02:28:44.288Z,933.06
2017-08-01T02:28:57.724Z,933.06
2017-08-01T02:29:11.165Z,933.06
2017-08-01T02:29:24.632Z,933.04
2017-08-01T02:29:38.079Z,933.03
2017-08-01T02:29:51.551Z,933.04
2017-08-01T02:30:03.910Z,933.04
2017-08-01T02:30:17.299Z,933.07
2017-08-01T02:30:30.236Z,933.04
2017-08-01T02:30:43.680Z,933.02
2017-08-01T02:30:57.142Z,933.04
2017-08-01T02:31:10.579Z,933.07
2017-08-01T02:31:23.994Z,933.06
2017-08-01T02:31:37.503Z,933.06
2017-08-01T02:31:50.992Z,933.07
2017-08-01T02:32:04.364Z,933.07
2017-08-01T02:32:17.358Z,933.07
2017-08-01T02:32:30.281Z,933.05
2017-08-01T02:32:43.778Z,933.07
2017-08-01T02:32:57.246Z,933.08
2017-08-01T02:33:10.052Z,933.06
2017-08-01T02:33:23.507Z,933.04
2017-08-01T02:33:36.986Z,933.06
2017-08-01T02:33:49.459Z,933.07
2017-08-01T02:34:03.042Z,933.04
2017-08-01T02:34:15.978Z,933.07
2017-08-01T02:34:29.477Z,933.04
2017-08-01T02:34:42.970Z,933.06
2017-08-01T02:34:56.439Z,933.03
2017-08-01T02:35:09.359Z,933.06
2017-08-01T02:35:22.900Z,933.05
2017-08-01T02:35:36.427Z,933.07
2017-08-01T02:35:49.379Z,933.03
2017-08-01T02:36:02.830Z,933.03
2017-08-01T02:36:15.723Z,933.03
2017-08-01T02:36:29.098Z,933.07
2017-08-01T02:36:42.033Z,933.04
2017-08-01T02:36:55.427Z,933.06
2017-08-01T02:37:08.341Z,933.06
2017-08-01T02:37:21.837Z,933.07
2017-08-01T02:37:35.199Z,933.07
2017-08-01T02:37:48.682Z,933.07
2017-08-01T02:38:01.615Z,933.05
2017-08-01T02:38:15.246Z,933.02
2017-08-01T02:38:28.170Z,933.03
2017-08-01T02:38:41.057Z,933.05
2017-08-01T02:38:54.513Z,933.02
2017-08-01T02:39:07.886Z,933.02
2017-08-01T02:39:21.344Z,933.03
2017-08-01T02:39:34.774Z,933.04
2017-08-01T02:39:48.205Z,933.01
2017-08-01T02:40:01.888Z,933.03
2017-08-01T02:40:15.366Z,933.03
2017-08-01T02:40:28.829Z,933.04
2017-08-01T02:40:42.253Z,933
2017-08-01T02:40:55.668Z,933.02
2017-08-01T02:41:09.162Z,933.05
2017-08-01T02:41:22.624Z,933.02
2017-08-01T02:41:36.158Z,933.03
2017-08-01T02:41:49.116Z,933.02
2017-08-01T02:42:02.030Z,933.05
2017-08-01T02:42:15.402Z,933.02
2017-08-01T02:42:28.828Z,933
2017-08-01T02:42:42.292Z,933.04
2017-08-01T02:42:55.166Z,933.05
2017-08-01T02:43:08.112Z,933.02
2017-08-01T02:43:21.071Z,933.05
2017-08-01T02:43:34.059Z,933.05
2017-08-01T02:43:47.496Z,933.05
2017-08-01T02:44:00.897Z,933.07
2017-08-01T02:44:13.881Z,933.05
2017-08-01T02:44:27.372Z,933.07
2017-08-01T02:44:40.810Z,933.08
2017-08-01T02:44:54.223Z,933.07
2017-08-01T02:45:07.156Z,933.12
2017-08-01T02:45:20.614Z,933.11
2017-08-01T02:45:34.048Z,933.11
2017-08-01T02:45:46.984Z,933.11
2017-08-01T02:46:00.505Z,933.12
2017-08-01T02:46:13.475Z,933.15